sensor_id;sensor_type;location;lat;lon;timestamp;pressure;altitude;pressure_sealevel;temperature;humidity
64853;BME280;56050;55.558;-4.644;2023-12-28T00:01:46;98537.41;;;9.06;71.59
64853;BME280;56050;55.558;-4.644;2023-12-28T00:04:12;98535.06;;;9.08;71.41
64853;BME280;56050;55.558;-4.644;2023-12-28T00:06:37;98529.25;;;9.10;71.58
64853;BME280;56050;55.558;-4.644;2023-12-28T00:09:02;98544.97;;;9.11;71.37
64853;BME280;56050;55.558;-4.644;2023-12-28T00:11:29;98548.81;;;9.10;71.30
64853;BME280;56050;55.558;-4.644;2023-12-28T00:13:54;98547.19;;;9.13;71.42
64853;BME280;56050;55.558;-4.644;2023-12-28T00:16:20;98566.00;;;9.13;71.23
64853;BME280;56050;55.558;-4.644;2023-12-28T00:18:45;98569.00;;;9.15;71.21
64853;BME280;56050;55.558;-4.644;2023-12-28T00:21:11;98567.50;;;9.14;71.26
64853;BME280;56050;55.558;-4.644;2023-12-28T00:23:36;98570.53;;;9.16;71.19
64853;BME280;56050;55.558;-4.644;2023-12-28T00:26:01;98569.44;;;9.13;70.99
64853;BME280;56050;55.558;-4.644;2023-12-28T00:28:27;98569.13;;;9.11;71.01
64853;BME280;56050;55.558;-4.644;2023-12-28T00:30:53;98576.44;;;9.11;71.08
64853;BME280;56050;55.558;-4.644;2023-12-28T00:33:18;98583.63;;;9.14;71.12
64853;BME280;56050;55.558;-4.644;2023-12-28T00:35:44;98579.00;;;9.14;70.98
64853;BME280;56050;55.558;-4.644;2023-12-28T00:38:09;98581.25;;;9.16;70.97
64853;BME280;56050;55.558;-4.644;2023-12-28T00:40:34;98585.88;;;9.15;70.88
64853;BME280;56050;55.558;-4.644;2023-12-28T00:43:00;98583.94;;;9.16;70.81
64853;BME280;56050;55.558;-4.644;2023-12-28T00:45:25;98582.88;;;9.13;70.74
64853;BME280;56050;55.558;-4.644;2023-12-28T00:47:51;98585.56;;;9.13;70.78
64853;BME280;56050;55.558;-4.644;2023-12-28T00:50:17;98596.72;;;9.12;70.76
64853;BME280;56050;55.558;-4.644;2023-12-28T00:52:42;98595.22;;;9.11;70.61
64853;BME280;56050;55.558;-4.644;2023-12-28T00:55:08;98597.25;;;9.07;70.51
64853;BME280;56050;55.558;-4.644;2023-12-28T00:57:33;98602.22;;;9.08;70.60
64853;BME280;56050;55.558;-4.644;2023-12-28T00:59:59;98591.47;;;9.08;70.62
64853;BME280;56050;55.558;-4.644;2023-12-28T01:02:25;98605.22;;;9.10;70.55
64853;BME280;56050;55.558;-4.644;2023-12-28T01:04:50;98607.03;;;9.13;70.44
64853;BME280;56050;55.558;-4.644;2023-12-28T01:07:16;98604.28;;;9.17;70.54
64853;BME280;56050;55.558;-4.644;2023-12-28T01:09:41;98620.25;;;9.20;70.49
64853;BME280;56050;55.558;-4.644;2023-12-28T01:12:06;98624.78;;;9.23;70.39
64853;BME280;56050;55.558;-4.644;2023-12-28T01:14:32;98635.13;;;9.25;70.38
64853;BME280;56050;55.558;-4.644;2023-12-28T01:16:58;98644.97;;;9.28;70.26
64853;BME280;56050;55.558;-4.644;2023-12-28T01:19:24;98644.97;;;9.28;70.40
64853;BME280;56050;55.558;-4.644;2023-12-28T01:21:50;98654.25;;;9.27;70.23
64853;BME280;56050;55.558;-4.644;2023-12-28T01:24:15;98654.25;;;9.27;70.03
64853;BME280;56050;55.558;-4.644;2023-12-28T01:26:41;98648.56;;;9.25;70.11
64853;BME280;56050;55.558;-4.644;2023-12-28T01:29:06;98649.63;;;9.27;70.23
64853;BME280;56050;55.558;-4.644;2023-12-28T01:31:32;98658.84;;;9.26;70.25
64853;BME280;56050;55.558;-4.644;2023-12-28T01:33:57;98662.63;;;9.29;69.95
64853;BME280;56050;55.558;-4.644;2023-12-28T01:36:23;98662.31;;;9.27;69.94
64853;BME280;56050;55.558;-4.644;2023-12-28T01:38:48;98672.38;;;9.23;69.65
64853;BME280;56050;55.558;-4.644;2023-12-28T01:41:14;98676.69;;;9.20;69.83
64853;BME280;56050;55.558;-4.644;2023-12-28T01:43:41;98683.56;;;9.21;69.70
64853;BME280;56050;55.558;-4.644;2023-12-28T01:46:10;98683.25;;;9.19;69.80
64853;BME280;56050;55.558;-4.644;2023-12-28T01:48:38;98694.31;;;9.21;69.72
64853;BME280;56050;55.558;-4.644;2023-12-28T01:51:03;98700.00;;;9.23;69.54
64853;BME280;56050;55.558;-4.644;2023-12-28T01:53:29;98703.84;;;9.22;69.48
64853;BME280;56050;55.558;-4.644;2023-12-28T01:55:55;98712.34;;;9.21;69.59
64853;BME280;56050;55.558;-4.644;2023-12-28T01:58:22;98710.75;;;9.23;69.73
64853;BME280;56050;55.558;-4.644;2023-12-28T02:00:47;98711.50;;;9.24;69.52
64853;BME280;56050;55.558;-4.644;2023-12-28T02:03:15;98714.97;;;9.24;69.71
64853;BME280;56050;55.558;-4.644;2023-12-28T02:05:41;98725.25;;;9.26;69.61
64853;BME280;56050;55.558;-4.644;2023-12-28T02:08:07;98730.22;;;9.27;69.56
64853;BME280;56050;55.558;-4.644;2023-12-28T02:10:33;98732.91;;;9.27;69.55
64853;BME280;56050;55.558;-4.644;2023-12-28T02:12:58;98735.59;;;9.27;69.45
64853;BME280;56050;55.558;-4.644;2023-12-28T02:15:23;98742.22;;;9.23;69.36
64853;BME280;56050;55.558;-4.644;2023-12-28T02:20:19;98740.63;;;9.25;69.50
64853;BME280;56050;55.558;-4.644;2023-12-28T02:22:46;98740.63;;;9.25;69.52
64853;BME280;56050;55.558;-4.644;2023-12-28T02:25:12;98761.72;;;9.27;69.56
64853;BME280;56050;55.558;-4.644;2023-12-28T02:27:42;98754.41;;;9.27;69.56
64853;BME280;56050;55.558;-4.644;2023-12-28T02:30:09;98760.94;;;9.26;69.60
64853;BME280;56050;55.558;-4.644;2023-12-28T02:35:16;98764.72;;;9.29;69.62
64853;BME280;56050;55.558;-4.644;2023-12-28T02:37:42;98771.50;;;9.33;69.72
64853;BME280;56050;55.558;-4.644;2023-12-28T02:40:09;98780.22;;;9.37;69.69
64853;BME280;56050;55.558;-4.644;2023-12-28T02:42:34;98791.72;;;9.38;69.54
64853;BME280;56050;55.558;-4.644;2023-12-28T02:45:00;98781.75;;;9.38;69.67
64853;BME280;56050;55.558;-4.644;2023-12-28T02:47:25;98797.75;;;9.42;69.57
64853;BME280;56050;55.558;-4.644;2023-12-28T02:49:51;98797.44;;;9.40;69.54
64853;BME280;56050;55.558;-4.644;2023-12-28T02:52:16;98801.72;;;9.37;69.39
64853;BME280;56050;55.558;-4.644;2023-12-28T02:54:41;98812.47;;;9.37;69.39
64853;BME280;56050;55.558;-4.644;2023-12-28T02:57:07;98811.38;;;9.35;69.14
64853;BME280;56050;55.558;-4.644;2023-12-28T02:59:32;98803.00;;;9.33;69.17
64853;BME280;56050;55.558;-4.644;2023-12-28T03:01:58;98810.72;;;9.31;68.87
64853;BME280;56050;55.558;-4.644;2023-12-28T03:04:23;98816.53;;;9.29;68.91
64853;BME280;56050;55.558;-4.644;2023-12-28T03:06:48;98818.53;;;9.25;68.91
64853;BME280;56050;55.558;-4.644;2023-12-28T03:09:14;98817.03;;;9.24;69.04
64853;BME280;56050;55.558;-4.644;2023-12-28T03:11:39;98829.72;;;9.24;68.80
64853;BME280;56050;55.558;-4.644;2023-12-28T03:14:04;98825.94;;;9.21;68.80
64853;BME280;56050;55.558;-4.644;2023-12-28T03:16:30;98829.91;;;9.17;68.82
64853;BME280;56050;55.558;-4.644;2023-12-28T03:18:55;98825.69;;;9.16;68.84
64853;BME280;56050;55.558;-4.644;2023-12-28T03:21:21;98823.34;;;9.18;69.04
64853;BME280;56050;55.558;-4.644;2023-12-28T03:23:46;98823.66;;;9.20;68.84
64853;BME280;56050;55.558;-4.644;2023-12-28T03:26:12;98834.00;;;9.21;68.82
64853;BME280;56050;55.558;-4.644;2023-12-28T03:28:37;98825.63;;;9.19;69.16
64853;BME280;56050;55.558;-4.644;2023-12-28T03:31:03;98831.97;;;9.25;69.21
64853;BME280;56050;55.558;-4.644;2023-12-28T03:33:28;98844.25;;;9.26;69.11
64853;BME280;56050;55.558;-4.644;2023-12-28T03:35:53;98852.72;;;9.25;69.01
64853;BME280;56050;55.558;-4.644;2023-12-28T03:38:19;98845.06;;;9.23;69.10
64853;BME280;56050;55.558;-4.644;2023-12-28T03:40:44;98855.06;;;9.23;69.01
64853;BME280;56050;55.558;-4.644;2023-12-28T03:43:13;98862.47;;;9.19;68.97
64853;BME280;56050;55.558;-4.644;2023-12-28T03:45:38;98873.97;;;9.19;69.00
64853;BME280;56050;55.558;-4.644;2023-12-28T03:48:04;98880.09;;;9.20;69.04
64853;BME280;56050;55.558;-4.644;2023-12-28T03:50:29;98882.38;;;9.21;69.27
64853;BME280;56050;55.558;-4.644;2023-12-28T03:52:55;98879.69;;;9.21;69.28
64853;BME280;56050;55.558;-4.644;2023-12-28T03:55:21;98880.31;;;9.25;69.34
64853;BME280;56050;55.558;-4.644;2023-12-28T03:57:46;98881.84;;;9.26;69.53
64853;BME280;56050;55.558;-4.644;2023-12-28T04:00:13;98891.75;;;9.29;69.21
64853;BME280;56050;55.558;-4.644;2023-12-28T04:02:40;98897.06;;;9.33;69.21
64853;BME280;56050;55.558;-4.644;2023-12-28T04:05:05;98891.16;;;9.38;69.24
64853;BME280;56050;55.558;-4.644;2023-12-28T04:07:32;98896.78;;;9.43;69.17
64853;BME280;56050;55.558;-4.644;2023-12-28T04:09:57;98894.75;;;9.48;69.09
64853;BME280;56050;55.558;-4.644;2023-12-28T04:12:23;98903.47;;;9.52;69.18
64853;BME280;56050;55.558;-4.644;2023-12-28T04:14:49;98898.75;;;9.56;69.17
64853;BME280;56050;55.558;-4.644;2023-12-28T04:17:14;98898.34;;;9.57;69.05
64853;BME280;56050;55.558;-4.644;2023-12-28T04:19:40;98909.88;;;9.58;69.16
64853;BME280;56050;55.558;-4.644;2023-12-28T04:22:05;98905.91;;;9.62;69.06
64853;BME280;56050;55.558;-4.644;2023-12-28T04:24:30;98898.28;;;9.61;68.96
64853;BME280;56050;55.558;-4.644;2023-12-28T04:26:56;98900.97;;;9.61;69.00
64853;BME280;56050;55.558;-4.644;2023-12-28T04:29:21;98903.28;;;9.59;68.99
64853;BME280;56050;55.558;-4.644;2023-12-28T04:31:47;98905.66;;;9.57;69.21
64853;BME280;56050;55.558;-4.644;2023-12-28T04:34:12;98911.88;;;9.54;69.18
64853;BME280;56050;55.558;-4.644;2023-12-28T04:36:43;98906.09;;;9.55;69.13
64853;BME280;56050;55.558;-4.644;2023-12-28T04:39:10;98906.94;;;9.52;69.19
64853;BME280;56050;55.558;-4.644;2023-12-28T04:41:35;98911.13;;;9.53;69.37
64853;BME280;56050;55.558;-4.644;2023-12-28T04:44:01;98914.25;;;9.52;69.20
64853;BME280;56050;55.558;-4.644;2023-12-28T04:46:26;98913.91;;;9.50;69.41
64853;BME280;56050;55.558;-4.644;2023-12-28T04:48:52;98912.06;;;9.47;69.40
64853;BME280;56050;55.558;-4.644;2023-12-28T04:51:17;98917.00;;;9.48;69.31
64853;BME280;56050;55.558;-4.644;2023-12-28T04:53:42;98912.81;;;9.47;69.38
64853;BME280;56050;55.558;-4.644;2023-12-28T04:56:08;98914.75;;;9.47;69.59
64853;BME280;56050;55.558;-4.644;2023-12-28T04:58:33;98927.00;;;9.48;69.50
64853;BME280;56050;55.558;-4.644;2023-12-28T05:01:01;98921.97;;;9.50;69.48
64853;BME280;56050;55.558;-4.644;2023-12-28T05:03:26;98915.00;;;9.52;69.55
64853;BME280;56050;55.558;-4.644;2023-12-28T05:05:52;98910.38;;;9.53;69.47
64853;BME280;56050;55.558;-4.644;2023-12-28T05:08:17;98911.47;;;9.55;69.46
64853;BME280;56050;55.558;-4.644;2023-12-28T05:10:43;98924.56;;;9.53;69.42
64853;BME280;56050;55.558;-4.644;2023-12-28T05:13:08;98922.63;;;9.54;69.47
64853;BME280;56050;55.558;-4.644;2023-12-28T05:15:34;98913.47;;;9.51;69.35
64853;BME280;56050;55.558;-4.644;2023-12-28T05:17:59;98911.63;;;9.48;69.61
64853;BME280;56050;55.558;-4.644;2023-12-28T05:20:24;98907.00;;;9.49;69.46
64853;BME280;56050;55.558;-4.644;2023-12-28T05:22:50;98902.06;;;9.47;69.46
64853;BME280;56050;55.558;-4.644;2023-12-28T05:25:15;98912.81;;;9.47;69.61
64853;BME280;56050;55.558;-4.644;2023-12-28T05:27:41;98914.41;;;9.44;69.71
64853;BME280;56050;55.558;-4.644;2023-12-28T05:30:08;98908.28;;;9.44;69.66
64853;BME280;56050;55.558;-4.644;2023-12-28T05:32:34;98910.97;;;9.44;69.58
64853;BME280;56050;55.558;-4.644;2023-12-28T05:34:59;98912.59;;;9.41;69.56
64853;BME280;56050;55.558;-4.644;2023-12-28T05:37:24;98914.50;;;9.41;69.55
64853;BME280;56050;55.558;-4.644;2023-12-28T05:39:50;98915.34;;;9.38;69.54
64853;BME280;56050;55.558;-4.644;2023-12-28T05:42:15;98919.97;;;9.37;69.53
64853;BME280;56050;55.558;-4.644;2023-12-28T05:44:41;98923.09;;;9.36;69.66
64853;BME280;56050;55.558;-4.644;2023-12-28T05:47:06;98924.25;;;9.35;69.63
64853;BME280;56050;55.558;-4.644;2023-12-28T05:49:31;98921.97;;;9.33;69.72
64853;BME280;56050;55.558;-4.644;2023-12-28T05:51:57;98924.25;;;9.35;69.81
64853;BME280;56050;55.558;-4.644;2023-12-28T05:54:22;98918.53;;;9.33;69.72
64853;BME280;56050;55.558;-4.644;2023-12-28T05:56:48;98941.97;;;9.32;69.67
64853;BME280;56050;55.558;-4.644;2023-12-28T05:59:13;98941.22;;;9.32;69.72
64853;BME280;56050;55.558;-4.644;2023-12-28T06:01:42;98946.50;;;9.35;69.83
64853;BME280;56050;55.558;-4.644;2023-12-28T06:04:08;98962.97;;;9.37;69.80
64853;BME280;56050;55.558;-4.644;2023-12-28T06:06:33;98951.03;;;9.38;69.72
64853;BME280;56050;55.558;-4.644;2023-12-28T06:08:59;98972.09;;;9.40;69.81
64853;BME280;56050;55.558;-4.644;2023-12-28T06:11:25;98975.13;;;9.42;69.64
64853;BME280;56050;55.558;-4.644;2023-12-28T06:13:50;98972.03;;;9.43;69.67
64853;BME280;56050;55.558;-4.644;2023-12-28T06:16:15;98968.16;;;9.44;69.71
64853;BME280;56050;55.558;-4.644;2023-12-28T06:18:41;98980.41;;;9.45;69.63
64853;BME280;56050;55.558;-4.644;2023-12-28T06:21:07;98980.00;;;9.47;69.67
64853;BME280;56050;55.558;-4.644;2023-12-28T06:23:33;98983.88;;;9.46;69.70
64853;BME280;56050;55.558;-4.644;2023-12-28T06:25:58;98979.66;;;9.45;69.65
64853;BME280;56050;55.558;-4.644;2023-12-28T06:28:23;98984.28;;;9.44;69.74
64853;BME280;56050;55.558;-4.644;2023-12-28T06:30:49;99004.28;;;9.43;69.68
64853;BME280;56050;55.558;-4.644;2023-12-28T06:33:14;99001.25;;;9.41;69.59
64853;BME280;56050;55.558;-4.644;2023-12-28T06:35:41;99006.28;;;9.39;69.66
64853;BME280;56050;55.558;-4.644;2023-12-28T06:38:06;99001.75;;;9.36;69.74
64853;BME280;56050;55.558;-4.644;2023-12-28T06:40:32;98992.59;;;9.34;69.63
64853;BME280;56050;55.558;-4.644;2023-12-28T06:42:57;98983.03;;;9.33;69.68
64853;BME280;56050;55.558;-4.644;2023-12-28T06:45:23;98986.97;;;9.28;69.54
64853;BME280;56050;55.558;-4.644;2023-12-28T06:47:52;98990.91;;;9.24;69.68
64853;BME280;56050;55.558;-4.644;2023-12-28T06:50:18;98987.91;;;9.22;69.80
64853;BME280;56050;55.558;-4.644;2023-12-28T06:52:43;98990.22;;;9.20;69.87
64853;BME280;56050;55.558;-4.644;2023-12-28T06:55:09;98986.44;;;9.17;69.83
64853;BME280;56050;55.558;-4.644;2023-12-28T06:57:34;98978.06;;;9.15;69.70
64853;BME280;56050;55.558;-4.644;2023-12-28T06:59:59;98985.03;;;9.13;69.81
64853;BME280;56050;55.558;-4.644;2023-12-28T07:02:27;98986.63;;;9.10;69.82
64853;BME280;56050;55.558;-4.644;2023-12-28T07:04:52;98982.00;;;9.11;69.82
64853;BME280;56050;55.558;-4.644;2023-12-28T07:07:18;98969.34;;;9.11;69.75
64853;BME280;56050;55.558;-4.644;2023-12-28T07:09:43;98969.25;;;9.15;69.79
64853;BME280;56050;55.558;-4.644;2023-12-28T07:12:08;98964.22;;;9.17;69.74
64853;BME280;56050;55.558;-4.644;2023-12-28T07:14:34;98965.38;;;9.16;69.58
64853;BME280;56050;55.558;-4.644;2023-12-28T07:17:01;98956.66;;;9.12;69.44
64853;BME280;56050;55.558;-4.644;2023-12-28T07:19:26;98964.03;;;9.08;69.48
64853;BME280;56050;55.558;-4.644;2023-12-28T07:21:52;98961.09;;;9.02;69.40
64853;BME280;56050;55.558;-4.644;2023-12-28T07:24:17;98963.09;;;8.98;69.44
64853;BME280;56050;55.558;-4.644;2023-12-28T07:26:43;98956.31;;;8.94;69.49
64853;BME280;56050;55.558;-4.644;2023-12-28T07:29:08;98959.38;;;8.92;69.51
64853;BME280;56050;55.558;-4.644;2023-12-28T07:31:33;98957.13;;;8.91;69.57
64853;BME280;56050;55.558;-4.644;2023-12-28T07:33:59;98955.22;;;8.91;69.64
64853;BME280;56050;55.558;-4.644;2023-12-28T07:36:24;98951.69;;;8.94;69.74
64853;BME280;56050;55.558;-4.644;2023-12-28T07:38:49;98957.31;;;9.00;69.70
64853;BME280;56050;55.558;-4.644;2023-12-28T07:41:15;98953.03;;;9.02;69.69
64853;BME280;56050;55.558;-4.644;2023-12-28T07:43:40;98951.84;;;9.03;69.62
64853;BME280;56050;55.558;-4.644;2023-12-28T07:46:06;98948.06;;;9.01;69.45
64853;BME280;56050;55.558;-4.644;2023-12-28T07:48:31;98943.47;;;9.01;69.58
64853;BME280;56050;55.558;-4.644;2023-12-28T07:50:57;98938.84;;;9.02;69.78
64853;BME280;56050;55.558;-4.644;2023-12-28T07:53:23;98937.59;;;9.06;69.83
64853;BME280;56050;55.558;-4.644;2023-12-28T07:55:49;98934.41;;;9.11;69.97
64853;BME280;56050;55.558;-4.644;2023-12-28T07:58:14;98934.25;;;9.18;69.81
64853;BME280;56050;55.558;-4.644;2023-12-28T08:00:40;98931.06;;;9.23;69.88
64853;BME280;56050;55.558;-4.644;2023-12-28T08:03:05;98927.44;;;9.30;69.88
64853;BME280;56050;55.558;-4.644;2023-12-28T08:05:30;98931.88;;;9.36;69.75
64853;BME280;56050;55.558;-4.644;2023-12-28T08:07:56;98926.00;;;9.41;69.59
64853;BME280;56050;55.558;-4.644;2023-12-28T08:10:21;98910.97;;;9.44;69.63
64853;BME280;56050;55.558;-4.644;2023-12-28T08:12:47;98921.63;;;9.48;69.71
64853;BME280;56050;55.558;-4.644;2023-12-28T08:15:12;98924.22;;;9.51;69.72
64853;BME280;56050;55.558;-4.644;2023-12-28T08:17:37;98913.41;;;9.55;69.73
64853;BME280;56050;55.558;-4.644;2023-12-28T08:20:03;98920.19;;;9.59;69.55
64853;BME280;56050;55.558;-4.644;2023-12-28T08:22:29;98908.19;;;9.64;69.70
64853;BME280;56050;55.558;-4.644;2023-12-28T08:24:54;98901.94;;;9.67;69.52
64853;BME280;56050;55.558;-4.644;2023-12-28T08:27:20;98912.19;;;9.72;69.57
64853;BME280;56050;55.558;-4.644;2023-12-28T08:29:45;98895.22;;;9.75;69.48
64853;BME280;56050;55.558;-4.644;2023-12-28T08:32:11;98905.53;;;9.76;69.54
64853;BME280;56050;55.558;-4.644;2023-12-28T08:34:36;98894.69;;;9.80;69.56
64853;BME280;56050;55.558;-4.644;2023-12-28T08:37:03;98896.53;;;9.83;69.46
64853;BME280;56050;55.558;-4.644;2023-12-28T08:39:28;98896.84;;;9.85;69.39
64853;BME280;56050;55.558;-4.644;2023-12-28T08:41:55;98897.16;;;9.87;69.54
64853;BME280;56050;55.558;-4.644;2023-12-28T08:44:20;98894.06;;;9.88;69.37
64853;BME280;56050;55.558;-4.644;2023-12-28T08:46:46;98893.97;;;9.92;69.33
64853;BME280;56050;55.558;-4.644;2023-12-28T08:49:11;98893.09;;;9.95;69.34
64853;BME280;56050;55.558;-4.644;2023-12-28T08:51:37;98883.44;;;9.97;69.16
64853;BME280;56050;55.558;-4.644;2023-12-28T08:54:02;98894.53;;;9.99;69.05
64853;BME280;56050;55.558;-4.644;2023-12-28T08:56:27;98881.81;;;10.00;68.90
64853;BME280;56050;55.558;-4.644;2023-12-28T08:58:53;98893.34;;;10.00;69.00
64853;BME280;56050;55.558;-4.644;2023-12-28T09:01:20;98876.88;;;9.98;69.02
64853;BME280;56050;55.558;-4.644;2023-12-28T09:03:54;98883.03;;;9.99;69.05
64853;BME280;56050;55.558;-4.644;2023-12-28T09:06:21;98881.09;;;9.99;69.08
64853;BME280;56050;55.558;-4.644;2023-12-28T09:08:51;98877.63;;;9.99;69.05
64853;BME280;56050;55.558;-4.644;2023-12-28T09:11:18;98885.72;;;9.99;69.08
64853;BME280;56050;55.558;-4.644;2023-12-28T09:13:43;98886.78;;;10.01;69.07
64853;BME280;56050;55.558;-4.644;2023-12-28T09:16:10;98877.53;;;10.02;68.92
64853;BME280;56050;55.558;-4.644;2023-12-28T09:18:38;98896.69;;;10.04;68.94
64853;BME280;56050;55.558;-4.644;2023-12-28T09:21:04;98895.09;;;10.07;68.89
64853;BME280;56050;55.558;-4.644;2023-12-28T09:23:31;98883.56;;;10.07;68.89
64853;BME280;56050;55.558;-4.644;2023-12-28T09:26:00;98891.97;;;10.09;68.85
64853;BME280;56050;55.558;-4.644;2023-12-28T09:28:26;98899.63;;;10.10;68.73
64853;BME280;56050;55.558;-4.644;2023-12-28T09:30:52;98878.09;;;10.10;68.82
64853;BME280;56050;55.558;-4.644;2023-12-28T09:33:17;98886.16;;;10.10;68.76
64853;BME280;56050;55.558;-4.644;2023-12-28T09:35:43;98880.69;;;10.14;68.63
64853;BME280;56050;55.558;-4.644;2023-12-28T09:38:09;98863.06;;;10.13;68.42
64853;BME280;56050;55.558;-4.644;2023-12-28T09:40:37;98864.56;;;10.14;68.60
64853;BME280;56050;55.558;-4.644;2023-12-28T09:43:25;98858.50;;;10.10;68.44
64853;BME280;56050;55.558;-4.644;2023-12-28T09:45:54;98848.16;;;10.08;68.54
64853;BME280;56050;55.558;-4.644;2023-12-28T09:48:21;98853.97;;;10.07;68.38
64853;BME280;56050;55.558;-4.644;2023-12-28T09:50:51;98849.34;;;10.07;68.46
64853;BME280;56050;55.558;-4.644;2023-12-28T09:53:23;98846.66;;;10.07;68.29
64853;BME280;56050;55.558;-4.644;2023-12-28T09:55:49;98843.13;;;10.10;68.40
64853;BME280;56050;55.558;-4.644;2023-12-28T09:58:18;98837.31;;;10.12;68.35
64853;BME280;56050;55.558;-4.644;2023-12-28T10:00:48;98819.66;;;10.11;68.36
64853;BME280;56050;55.558;-4.644;2023-12-28T10:03:15;98798.88;;;10.11;68.18
64853;BME280;56050;55.558;-4.644;2023-12-28T10:05:42;98810.09;;;10.10;68.07
64853;BME280;56050;55.558;-4.644;2023-12-28T10:08:10;98813.94;;;10.09;68.19
64853;BME280;56050;55.558;-4.644;2023-12-28T10:10:37;98828.16;;;10.09;68.10
64853;BME280;56050;55.558;-4.644;2023-12-28T10:13:03;98836.22;;;10.09;68.17
64853;BME280;56050;55.558;-4.644;2023-12-28T10:15:30;98829.66;;;10.10;67.96
64853;BME280;56050;55.558;-4.644;2023-12-28T10:17:56;98833.13;;;10.11;68.10
64853;BME280;56050;55.558;-4.644;2023-12-28T10:20:21;98837.75;;;10.10;68.15
64853;BME280;56050;55.558;-4.644;2023-12-28T10:22:47;98823.22;;;10.08;68.14
64853;BME280;56050;55.558;-4.644;2023-12-28T10:25:13;98821.78;;;10.03;68.13
64853;BME280;56050;55.558;-4.644;2023-12-28T10:27:39;98811.88;;;10.00;68.12
64853;BME280;56050;55.558;-4.644;2023-12-28T10:30:07;98814.78;;;9.93;68.20
64853;BME280;56050;55.558;-4.644;2023-12-28T10:32:32;98812.19;;;9.89;68.42
64853;BME280;56050;55.558;-4.644;2023-12-28T10:34:58;98803.81;;;9.87;68.57
64853;BME280;56050;55.558;-4.644;2023-12-28T10:37:26;98813.47;;;9.85;68.63
64853;BME280;56050;55.558;-4.644;2023-12-28T10:39:53;98811.13;;;9.87;68.74
64853;BME280;56050;55.558;-4.644;2023-12-28T10:42:32;98797.25;;;9.88;68.77
64853;BME280;56050;55.558;-4.644;2023-12-28T10:45:05;98779.06;;;9.92;68.79
64853;BME280;56050;55.558;-4.644;2023-12-28T10:47:32;98792.75;;;9.98;68.73
64853;BME280;56050;55.558;-4.644;2023-12-28T10:50:05;98775.75;;;10.01;68.76
64853;BME280;56050;55.558;-4.644;2023-12-28T10:52:32;98767.13;;;10.06;68.75
64853;BME280;56050;55.558;-4.644;2023-12-28T10:55:40;98761.22;;;10.11;68.71
64853;BME280;56050;55.558;-4.644;2023-12-28T10:58:17;98767.59;;;10.17;68.54
64853;BME280;56050;55.558;-4.644;2023-12-28T11:00:53;98752.88;;;10.22;68.31
64853;BME280;56050;55.558;-4.644;2023-12-28T11:03:26;98752.75;;;10.25;68.39
64853;BME280;56050;55.558;-4.644;2023-12-28T11:05:53;98752.19;;;10.30;68.26
64853;BME280;56050;55.558;-4.644;2023-12-28T11:08:19;98753.59;;;10.35;68.64
64853;BME280;56050;55.558;-4.644;2023-12-28T11:10:45;98751.53;;;10.39;68.47
64853;BME280;56050;55.558;-4.644;2023-12-28T11:13:13;98735.28;;;10.42;68.26
64853;BME280;56050;55.558;-4.644;2023-12-28T11:15:41;98731.28;;;10.47;68.07
64853;BME280;56050;55.558;-4.644;2023-12-28T11:18:06;98726.25;;;10.49;68.33
64853;BME280;56050;55.558;-4.644;2023-12-28T11:20:32;98740.63;;;10.55;68.28
64853;BME280;56050;55.558;-4.644;2023-12-28T11:22:59;98729.44;;;10.56;68.25
64853;BME280;56050;55.558;-4.644;2023-12-28T11:25:31;98733.31;;;10.55;68.11
64853;BME280;56050;55.558;-4.644;2023-12-28T11:27:56;98739.03;;;10.57;68.02
64853;BME280;56050;55.558;-4.644;2023-12-28T11:30:26;98717.50;;;10.57;68.19
64853;BME280;56050;55.558;-4.644;2023-12-28T11:32:56;98726.75;;;10.56;67.98
64853;BME280;56050;55.558;-4.644;2023-12-28T11:35:21;98717.94;;;10.56;68.13
64853;BME280;56050;55.558;-4.644;2023-12-28T11:37:50;98715.22;;;10.56;67.92
64853;BME280;56050;55.558;-4.644;2023-12-28T11:40:17;98730.22;;;10.57;68.08
64853;BME280;56050;55.558;-4.644;2023-12-28T11:42:49;98716.75;;;10.57;68.06
64853;BME280;56050;55.558;-4.644;2023-12-28T11:45:17;98711.69;;;10.59;67.95
64853;BME280;56050;55.558;-4.644;2023-12-28T11:47:42;98706.75;;;10.57;68.02
64853;BME280;56050;55.558;-4.644;2023-12-28T11:50:08;98698.22;;;10.59;67.85
64853;BME280;56050;55.558;-4.644;2023-12-28T11:52:34;98690.91;;;10.59;67.94
64853;BME280;56050;55.558;-4.644;2023-12-28T11:55:00;98695.22;;;10.57;67.74
64853;BME280;56050;55.558;-4.644;2023-12-28T11:57:26;98695.97;;;10.57;67.76
64853;BME280;56050;55.558;-4.644;2023-12-28T11:59:59;98670.53;;;10.58;67.81
64853;BME280;56050;55.558;-4.644;2023-12-28T12:02:25;98667.41;;;10.60;67.80
64853;BME280;56050;55.558;-4.644;2023-12-28T12:04:51;98692.72;;;10.63;67.57
64853;BME280;56050;55.558;-4.644;2023-12-28T12:07:16;98679.69;;;10.61;67.63
64853;BME280;56050;55.558;-4.644;2023-12-28T12:09:42;98673.22;;;10.58;67.71
64853;BME280;56050;55.558;-4.644;2023-12-28T12:12:09;98660.97;;;10.57;67.52
64853;BME280;56050;55.558;-4.644;2023-12-28T12:14:35;98662.16;;;10.56;67.83
64853;BME280;56050;55.558;-4.644;2023-12-28T12:17:01;98673.34;;;10.55;67.77
64853;BME280;56050;55.558;-4.644;2023-12-28T12:19:27;98682.31;;;10.52;67.82
64853;BME280;56050;55.558;-4.644;2023-12-28T12:21:53;98676.16;;;10.51;67.90
64853;BME280;56050;55.558;-4.644;2023-12-28T12:24:19;98674.66;;;10.50;67.76
64853;BME280;56050;55.558;-4.644;2023-12-28T12:26:48;98662.72;;;10.51;67.73
64853;BME280;56050;55.558;-4.644;2023-12-28T12:29:14;98663.88;;;10.50;67.65
64853;BME280;56050;55.558;-4.644;2023-12-28T12:31:40;98686.28;;;10.47;67.45
64853;BME280;56050;55.558;-4.644;2023-12-28T12:34:10;98688.47;;;10.40;67.36
64853;BME280;56050;55.558;-4.644;2023-12-28T12:36:37;98702.25;;;10.29;67.25
64853;BME280;56050;55.558;-4.644;2023-12-28T12:39:03;98689.00;;;10.10;67.69
64853;BME280;56050;55.558;-4.644;2023-12-28T12:41:34;98706.69;;;9.85;68.58
64853;BME280;56050;55.558;-4.644;2023-12-28T12:44:00;98707.19;;;9.68;69.60
64853;BME280;56050;55.558;-4.644;2023-12-28T12:46:26;98723.81;;;9.50;70.36
64853;BME280;56050;55.558;-4.644;2023-12-28T12:49:00;98718.75;;;9.39;70.78
64853;BME280;56050;55.558;-4.644;2023-12-28T12:51:28;98713.91;;;9.34;71.09
64853;BME280;56050;55.558;-4.644;2023-12-28T12:54:00;98732.47;;;9.29;71.38
64853;BME280;56050;55.558;-4.644;2023-12-28T12:56:28;98735.25;;;9.25;71.20
64853;BME280;56050;55.558;-4.644;2023-12-28T12:58:55;98728.78;;;9.23;70.76